sensor_id;sensor_type;location;lat;lon;timestamp;temperature;humidity
56725;DHT22;42608;52.776;6.968;2023-07-31T00:01:45;16.80;99.90
56725;DHT22;42608;52.776;6.968;2023-07-31T00:04:12;16.70;99.90
56725;DHT22;42608;52.776;6.968;2023-07-31T00:06:38;16.70;99.90
56725;DHT22;42608;52.776;6.968;2023-07-31T00:09:03;16.70;99.90
56725;DHT22;42608;52.776;6.968;2023-07-31T00:11:31;16.70;99.90
56725;DHT22;42608;52.776;6.968;2023-07-31T00:13:57;16.70;99.90
56725;DHT22;42608;52.776;6.968;2023-07-31T00:16:23;16.70;99.90
56725;DHT22;42608;52.776;6.968;2023-07-31T00:18:48;16.70;99.90
56725;DHT22;42608;52.776;6.968;2023-07-31T00:21:14;16.70;99.90
56725;DHT22;42608;52.776;6.968;2023-07-31T00:23:40;16.60;99.90
56725;DHT22;42608;52.776;6.968;2023-07-31T00:26:05;16.60;99.90
56725;DHT22;42608;52.776;6.968;2023-07-31T00:28:31;16.60;99.90
56725;DHT22;42608;52.776;6.968;2023-07-31T00:30:56;16.60;99.90
56725;DHT22;42608;52.776;6.968;2023-07-31T00:33:22;16.60;99.90
56725;DHT22;42608;52.776;6.968;2023-07-31T00:35:48;16.60;99.90
56725;DHT22;42608;52.776;6.968;2023-07-31T00:38:13;16.50;99.90
56725;DHT22;42608;52.776;6.968;2023-07-31T00:40:39;16.50;99.90
56725;DHT22;42608;52.776;6.968;2023-07-31T00:43:04;16.50;99.90
56725;DHT22;42608;52.776;6.968;2023-07-31T00:45:30;16.50;99.90
56725;DHT22;42608;52.776;6.968;2023-07-31T00:47:56;16.50;99.90
56725;DHT22;42608;52.776;6.968;2023-07-31T00:50:24;16.50;99.90
56725;DHT22;42608;52.776;6.968;2023-07-31T00:52:49;16.50;99.90
56725;DHT22;42608;52.776;6.968;2023-07-31T00:55:19;16.40;99.90
56725;DHT22;42608;52.776;6.968;2023-07-31T00:57:47;16.40;99.90
56725;DHT22;42608;52.776;6.968;2023-07-31T01:00:25;16.40;99.90
56725;DHT22;42608;52.776;6.968;2023-07-31T01:02:51;16.40;99.90
56725;DHT22;42608;52.776;6.968;2023-07-31T01:05:21;16.30;99.90
56725;DHT22;42608;52.776;6.968;2023-07-31T01:10:15;16.30;99.90
56725;DHT22;42608;52.776;6.968;2023-07-31T01:12:42;16.30;99.90
56725;DHT22;42608;52.776;6.968;2023-07-31T01:15:09;16.30;99.90
56725;DHT22;42608;52.776;6.968;2023-07-31T01:17:43;16.20;99.90
56725;DHT22;42608;52.776;6.968;2023-07-31T01:20:17;16.30;99.90
56725;DHT22;42608;52.776;6.968;2023-07-31T01:22:50;16.20;99.90
56725;DHT22;42608;52.776;6.968;2023-07-31T01:28:11;16.20;99.90
56725;DHT22;42608;52.776;6.968;2023-07-31T01:30:41;16.20;99.90
56725;DHT22;42608;52.776;6.968;2023-07-31T01:33:07;16.10;99.90
56725;DHT22;42608;52.776;6.968;2023-07-31T01:35:34;16.10;99.90
56725;DHT22;42608;52.776;6.968;2023-07-31T01:38:01;16.10;99.90
56725;DHT22;42608;52.776;6.968;2023-07-31T01:40:26;16.10;99.90
56725;DHT22;42608;52.776;6.968;2023-07-31T01:42:52;16.10;99.90
56725;DHT22;42608;52.776;6.968;2023-07-31T01:45:17;16.10;99.90
56725;DHT22;42608;52.776;6.968;2023-07-31T01:47:43;16.10;99.90
56725;DHT22;42608;52.776;6.968;2023-07-31T01:50:08;16.10;99.90
56725;DHT22;42608;52.776;6.968;2023-07-31T01:52:34;16.10;99.90
56725;DHT22;42608;52.776;6.968;2023-07-31T01:55:00;16.10;99.90
56725;DHT22;42608;52.776;6.968;2023-07-31T01:57:25;16.10;99.90
56725;DHT22;42608;52.776;6.968;2023-07-31T01:59:54;16.10;99.90
56725;DHT22;42608;52.776;6.968;2023-07-31T02:02:22;16.10;99.90
56725;DHT22;42608;52.776;6.968;2023-07-31T02:04:50;16.10;99.90
56725;DHT22;42608;52.776;6.968;2023-07-31T02:07:16;16.10;99.90
56725;DHT22;42608;52.776;6.968;2023-07-31T02:09:41;16.00;99.90
56725;DHT22;42608;52.776;6.968;2023-07-31T02:12:07;16.10;99.90
56725;DHT22;42608;52.776;6.968;2023-07-31T02:14:36;16.00;99.90
56725;DHT22;42608;52.776;6.968;2023-07-31T02:17:01;16.00;99.90
56725;DHT22;42608;52.776;6.968;2023-07-31T02:19:27;16.00;99.90
56725;DHT22;42608;52.776;6.968;2023-07-31T02:21:52;16.00;99.90
56725;DHT22;42608;52.776;6.968;2023-07-31T02:24:18;16.00;99.90
56725;DHT22;42608;52.776;6.968;2023-07-31T02:26:43;16.00;99.90
56725;DHT22;42608;52.776;6.968;2023-07-31T02:29:09;16.00;99.90
56725;DHT22;42608;52.776;6.968;2023-07-31T02:31:34;16.00;99.90
56725;DHT22;42608;52.776;6.968;2023-07-31T02:34:00;16.00;99.90
56725;DHT22;42608;52.776;6.968;2023-07-31T02:36:26;16.00;99.90
56725;DHT22;42608;52.776;6.968;2023-07-31T02:38:51;16.00;99.90
56725;DHT22;42608;52.776;6.968;2023-07-31T02:41:20;16.00;99.90
56725;DHT22;42608;52.776;6.968;2023-07-31T02:43:46;16.00;99.90
56725;DHT22;42608;52.776;6.968;2023-07-31T02:46:11;16.00;99.90
56725;DHT22;42608;52.776;6.968;2023-07-31T02:48:37;16.00;99.90
56725;DHT22;42608;52.776;6.968;2023-07-31T02:51:02;16.00;99.90
56725;DHT22;42608;52.776;6.968;2023-07-31T02:53:28;16.00;99.90
56725;DHT22;42608;52.776;6.968;2023-07-31T02:55:54;16.00;99.90
56725;DHT22;42608;52.776;6.968;2023-07-31T02:58:19;16.00;99.90
56725;DHT22;42608;52.776;6.968;2023-07-31T03:00:46;16.00;99.90
56725;DHT22;42608;52.776;6.968;2023-07-31T03:03:11;16.00;99.90
56725;DHT22;42608;52.776;6.968;2023-07-31T03:05:37;16.00;99.90
56725;DHT22;42608;52.776;6.968;2023-07-31T03:08:03;16.00;99.90
56725;DHT22;42608;52.776;6.968;2023-07-31T03:10:29;16.00;99.90
56725;DHT22;42608;52.776;6.968;2023-07-31T03:12:54;16.00;99.90
56725;DHT22;42608;52.776;6.968;2023-07-31T03:15:20;16.10;99.90
56725;DHT22;42608;52.776;6.968;2023-07-31T03:17:45;16.00;99.90
56725;DHT22;42608;52.776;6.968;2023-07-31T03:20:11;16.10;99.90
56725;DHT22;42608;52.776;6.968;2023-07-31T03:22:37;16.10;99.90
56725;DHT22;42608;52.776;6.968;2023-07-31T03:25:03;16.10;99.90
56725;DHT22;42608;52.776;6.968;2023-07-31T03:27:29;16.10;99.90
56725;DHT22;42608;52.776;6.968;2023-07-31T03:29:55;16.20;99.90
56725;DHT22;42608;52.776;6.968;2023-07-31T03:32:20;16.20;99.90
56725;DHT22;42608;52.776;6.968;2023-07-31T03:34:49;16.20;99.90
56725;DHT22;42608;52.776;6.968;2023-07-31T03:37:17;16.20;99.90
56725;DHT22;42608;52.776;6.968;2023-07-31T03:39:43;16.20;99.90
56725;DHT22;42608;52.776;6.968;2023-07-31T03:42:09;16.20;99.90
56725;DHT22;42608;52.776;6.968;2023-07-31T03:44:34;16.20;99.90
56725;DHT22;42608;52.776;6.968;2023-07-31T03:47:00;16.20;99.90
56725;DHT22;42608;52.776;6.968;2023-07-31T03:49:28;16.20;99.90
56725;DHT22;42608;52.776;6.968;2023-07-31T03:51:54;16.20;99.90
56725;DHT22;42608;52.776;6.968;2023-07-31T03:54:22;16.20;99.90
56725;DHT22;42608;52.776;6.968;2023-07-31T03:56:48;16.20;99.90
56725;DHT22;42608;52.776;6.968;2023-07-31T03:59:14;16.20;99.90
56725;DHT22;42608;52.776;6.968;2023-07-31T04:01:39;16.20;99.90
56725;DHT22;42608;52.776;6.968;2023-07-31T04:04:05;16.20;99.90
56725;DHT22;42608;52.776;6.968;2023-07-31T04:06:30;16.20;99.90
56725;DHT22;42608;52.776;6.968;2023-07-31T04:09:01;16.20;99.90
56725;DHT22;42608;52.776;6.968;2023-07-31T04:11:27;16.20;99.90
56725;DHT22;42608;52.776;6.968;2023-07-31T04:13:53;16.20;99.90
56725;DHT22;42608;52.776;6.968;2023-07-31T04:16:24;16.30;99.90
56725;DHT22;42608;52.776;6.968;2023-07-31T04:18:50;16.20;99.90
56725;DHT22;42608;52.776;6.968;2023-07-31T04:21:18;16.30;99.90
56725;DHT22;42608;52.776;6.968;2023-07-31T04:23:44;16.30;99.90
56725;DHT22;42608;52.776;6.968;2023-07-31T04:26:09;16.30;99.90
56725;DHT22;42608;52.776;6.968;2023-07-31T04:28:35;16.30;99.90
56725;DHT22;42608;52.776;6.968;2023-07-31T04:31:00;16.30;99.90
56725;DHT22;42608;52.776;6.968;2023-07-31T04:33:26;16.30;99.90
56725;DHT22;42608;52.776;6.968;2023-07-31T04:35:52;16.30;99.90
56725;DHT22;42608;52.776;6.968;2023-07-31T04:38:27;16.30;99.90
56725;DHT22;42608;52.776;6.968;2023-07-31T04:40:54;16.30;99.90
56725;DHT22;42608;52.776;6.968;2023-07-31T04:43:19;16.30;99.90
56725;DHT22;42608;52.776;6.968;2023-07-31T04:45:48;16.20;99.90
56725;DHT22;42608;52.776;6.968;2023-07-31T04:48:15;16.20;99.90
56725;DHT22;42608;52.776;6.968;2023-07-31T04:50:40;16.30;99.90
56725;DHT22;42608;52.776;6.968;2023-07-31T04:53:06;16.20;99.90
56725;DHT22;42608;52.776;6.968;2023-07-31T04:55:31;16.20;99.90
56725;DHT22;42608;52.776;6.968;2023-07-31T04:57:58;16.20;99.90
56725;DHT22;42608;52.776;6.968;2023-07-31T05:00:24;16.20;99.90
56725;DHT22;42608;52.776;6.968;2023-07-31T05:02:49;16.30;99.90
56725;DHT22;42608;52.776;6.968;2023-07-31T05:05:15;16.30;99.90
56725;DHT22;42608;52.776;6.968;2023-07-31T05:07:40;16.30;99.90
56725;DHT22;42608;52.776;6.968;2023-07-31T05:10:06;16.30;99.90
56725;DHT22;42608;52.776;6.968;2023-07-31T05:12:32;16.30;99.90
56725;DHT22;42608;52.776;6.968;2023-07-31T05:14:57;16.30;99.90
56725;DHT22;42608;52.776;6.968;2023-07-31T05:17:23;16.30;99.90
56725;DHT22;42608;52.776;6.968;2023-07-31T05:19:48;16.30;99.90
56725;DHT22;42608;52.776;6.968;2023-07-31T05:22:17;16.40;99.90
56725;DHT22;42608;52.776;6.968;2023-07-31T05:24:42;16.40;99.90
56725;DHT22;42608;52.776;6.968;2023-07-31T05:27:08;16.40;99.90
56725;DHT22;42608;52.776;6.968;2023-07-31T05:29:35;16.40;99.90
56725;DHT22;42608;52.776;6.968;2023-07-31T05:32:00;16.40;99.90
56725;DHT22;42608;52.776;6.968;2023-07-31T05:34:26;16.40;99.90
56725;DHT22;42608;52.776;6.968;2023-07-31T05:36:51;16.40;99.90
56725;DHT22;42608;52.776;6.968;2023-07-31T05:39:17;16.50;99.90
56725;DHT22;42608;52.776;6.968;2023-07-31T05:41:45;16.50;99.90
56725;DHT22;42608;52.776;6.968;2023-07-31T05:44:11;16.50;99.90
56725;DHT22;42608;52.776;6.968;2023-07-31T05:46:36;16.50;99.90
56725;DHT22;42608;52.776;6.968;2023-07-31T05:49:02;16.50;99.90
56725;DHT22;42608;52.776;6.968;2023-07-31T05:51:28;16.50;99.90
56725;DHT22;42608;52.776;6.968;2023-07-31T05:53:53;16.60;99.90
56725;DHT22;42608;52.776;6.968;2023-07-31T05:56:19;16.60;99.90
56725;DHT22;42608;52.776;6.968;2023-07-31T05:58:44;16.60;99.90
56725;DHT22;42608;52.776;6.968;2023-07-31T06:01:10;16.60;99.90
56725;DHT22;42608;52.776;6.968;2023-07-31T06:03:35;16.60;99.90
56725;DHT22;42608;52.776;6.968;2023-07-31T06:06:01;16.60;99.90
56725;DHT22;42608;52.776;6.968;2023-07-31T06:08:26;16.60;99.90
56725;DHT22;42608;52.776;6.968;2023-07-31T06:10:52;16.60;99.90
56725;DHT22;42608;52.776;6.968;2023-07-31T06:13:18;16.60;99.90
56725;DHT22;42608;52.776;6.968;2023-07-31T06:15:43;16.60;99.90
56725;DHT22;42608;52.776;6.968;2023-07-31T06:18:09;16.70;99.90
56725;DHT22;42608;52.776;6.968;2023-07-31T06:20:35;16.70;99.90
56725;DHT22;42608;52.776;6.968;2023-07-31T06:23:01;16.70;99.90
56725;DHT22;42608;52.776;6.968;2023-07-31T06:25:26;16.70;99.90
56725;DHT22;42608;52.776;6.968;2023-07-31T06:27:52;16.70;99.90
56725;DHT22;42608;52.776;6.968;2023-07-31T06:30:18;16.70;99.90
56725;DHT22;42608;52.776;6.968;2023-07-31T06:32:43;16.70;99.90
56725;DHT22;42608;52.776;6.968;2023-07-31T06:35:09;16.70;99.90
56725;DHT22;42608;52.776;6.968;2023-07-31T06:37:34;16.70;99.90
56725;DHT22;42608;52.776;6.968;2023-07-31T06:40:00;16.70;99.90
56725;DHT22;42608;52.776;6.968;2023-07-31T06:42:25;16.70;99.90
56725;DHT22;42608;52.776;6.968;2023-07-31T06:44:51;16.70;99.90
56725;DHT22;42608;52.776;6.968;2023-07-31T06:47:16;16.70;99.90
56725;DHT22;42608;52.776;6.968;2023-07-31T06:49:42;16.70;99.90
56725;DHT22;42608;52.776;6.968;2023-07-31T06:52:08;16.70;99.90
56725;DHT22;42608;52.776;6.968;2023-07-31T06:54:33;16.70;99.90
56725;DHT22;42608;52.776;6.968;2023-07-31T06:56:59;16.70;99.90
56725;DHT22;42608;52.776;6.968;2023-07-31T06:59:24;16.70;99.90
56725;DHT22;42608;52.776;6.968;2023-07-31T07:01:50;16.70;99.90
56725;DHT22;42608;52.776;6.968;2023-07-31T07:04:15;16.70;99.90
56725;DHT22;42608;52.776;6.968;2023-07-31T07:06:41;16.70;99.90
56725;DHT22;42608;52.776;6.968;2023-07-31T07:09:07;16.70;99.90
56725;DHT22;42608;52.776;6.968;2023-07-31T07:11:33;16.70;99.90
56725;DHT22;42608;52.776;6.968;2023-07-31T07:13:59;16.70;99.90
56725;DHT22;42608;52.776;6.968;2023-07-31T07:16:25;16.70;99.90
56725;DHT22;42608;52.776;6.968;2023-07-31T07:18:51;16.70;99.90
56725;DHT22;42608;52.776;6.968;2023-07-31T07:21:17;16.70;99.90
56725;DHT22;42608;52.776;6.968;2023-07-31T07:23:43;16.70;99.90
56725;DHT22;42608;52.776;6.968;2023-07-31T07:26:08;16.70;99.90
56725;DHT22;42608;52.776;6.968;2023-07-31T07:28:34;16.70;99.90
56725;DHT22;42608;52.776;6.968;2023-07-31T07:31:00;16.70;99.90
56725;DHT22;42608;52.776;6.968;2023-07-31T07:33:26;16.60;99.90
56725;DHT22;42608;52.776;6.968;2023-07-31T07:35:52;16.60;99.90
56725;DHT22;42608;52.776;6.968;2023-07-31T07:38:18;16.70;99.90
56725;DHT22;42608;52.776;6.968;2023-07-31T07:40:46;16.70;99.90
56725;DHT22;42608;52.776;6.968;2023-07-31T07:43:15;16.70;99.90
56725;DHT22;42608;52.776;6.968;2023-07-31T07:45:41;16.70;99.90
56725;DHT22;42608;52.776;6.968;2023-07-31T07:48:07;16.70;99.90
56725;DHT22;42608;52.776;6.968;2023-07-31T07:50:32;16.60;99.90
56725;DHT22;42608;52.776;6.968;2023-07-31T07:52:58;16.70;99.90
56725;DHT22;42608;52.776;6.968;2023-07-31T07:55:24;16.70;99.90
56725;DHT22;42608;52.776;6.968;2023-07-31T07:57:49;16.70;99.90
56725;DHT22;42608;52.776;6.968;2023-07-31T08:00:15;16.70;99.90
56725;DHT22;42608;52.776;6.968;2023-07-31T08:02:42;16.70;99.90
56725;DHT22;42608;52.776;6.968;2023-07-31T08:05:08;16.70;99.90
56725;DHT22;42608;52.776;6.968;2023-07-31T08:07:33;16.70;99.90
56725;DHT22;42608;52.776;6.968;2023-07-31T08:10:02;16.70;99.90
56725;DHT22;42608;52.776;6.968;2023-07-31T08:12:27;16.70;99.90
56725;DHT22;42608;52.776;6.968;2023-07-31T08:14:53;16.70;99.90
56725;DHT22;42608;52.776;6.968;2023-07-31T08:17:21;16.70;99.90
56725;DHT22;42608;52.776;6.968;2023-07-31T08:19:47;16.70;99.90
56725;DHT22;42608;52.776;6.968;2023-07-31T08:22:12;16.70;99.90
56725;DHT22;42608;52.776;6.968;2023-07-31T08:24:38;16.80;99.90
56725;DHT22;42608;52.776;6.968;2023-07-31T08:27:05;16.80;99.90
56725;DHT22;42608;52.776;6.968;2023-07-31T08:29:31;16.80;99.90
56725;DHT22;42608;52.776;6.968;2023-07-31T08:31:56;16.80;99.90
56725;DHT22;42608;52.776;6.968;2023-07-31T08:34:22;16.80;99.90
56725;DHT22;42608;52.776;6.968;2023-07-31T08:36:47;16.80;99.90
56725;DHT22;42608;52.776;6.968;2023-07-31T08:39:13;16.90;99.90
56725;DHT22;42608;52.776;6.968;2023-07-31T08:41:38;16.90;99.90
56725;DHT22;42608;52.776;6.968;2023-07-31T08:44:07;16.90;99.90
56725;DHT22;42608;52.776;6.968;2023-07-31T08:46:33;16.80;99.90
56725;DHT22;42608;52.776;6.968;2023-07-31T08:48:59;16.90;99.90
56725;DHT22;42608;52.776;6.968;2023-07-31T08:51:25;16.90;99.90
56725;DHT22;42608;52.776;6.968;2023-07-31T08:53:52;16.90;99.90
56725;DHT22;42608;52.776;6.968;2023-07-31T08:56:18;16.90;99.90
56725;DHT22;42608;52.776;6.968;2023-07-31T08:58:44;16.90;99.90
56725;DHT22;42608;52.776;6.968;2023-07-31T09:01:10;17.00;99.90
56725;DHT22;42608;52.776;6.968;2023-07-31T09:03:36;17.00;99.90
56725;DHT22;42608;52.776;6.968;2023-07-31T09:06:04;17.00;99.90
56725;DHT22;42608;52.776;6.968;2023-07-31T09:08:31;17.00;99.90
56725;DHT22;42608;52.776;6.968;2023-07-31T09:11:00;17.00;99.90
56725;DHT22;42608;52.776;6.968;2023-07-31T09:13:29;17.10;99.90
56725;DHT22;42608;52.776;6.968;2023-07-31T09:15:55;17.10;99.90
56725;DHT22;42608;52.776;6.968;2023-07-31T09:18:20;17.20;99.90
56725;DHT22;42608;52.776;6.968;2023-07-31T09:21:01;17.20;99.90
56725;DHT22;42608;52.776;6.968;2023-07-31T09:23:42;17.20;99.90
56725;DHT22;42608;52.776;6.968;2023-07-31T09:26:08;17.30;99.90
56725;DHT22;42608;52.776;6.968;2023-07-31T09:28:33;17.30;99.90
56725;DHT22;42608;52.776;6.968;2023-07-31T09:30:59;17.30;99.90
56725;DHT22;42608;52.776;6.968;2023-07-31T09:33:25;17.30;99.90
56725;DHT22;42608;52.776;6.968;2023-07-31T09:35:50;17.40;99.90
56725;DHT22;42608;52.776;6.968;2023-07-31T09:38:16;17.40;99.90
56725;DHT22;42608;52.776;6.968;2023-07-31T09:40:46;17.40;99.90
56725;DHT22;42608;52.776;6.968;2023-07-31T09:43:12;17.40;99.90
56725;DHT22;42608;52.776;6.968;2023-07-31T09:45:41;17.50;99.90
56725;DHT22;42608;52.776;6.968;2023-07-31T09:48:08;17.50;99.90
56725;DHT22;42608;52.776;6.968;2023-07-31T09:50:36;17.50;99.90
56725;DHT22;42608;52.776;6.968;2023-07-31T09:53:03;17.50;99.90
56725;DHT22;42608;52.776;6.968;2023-07-31T09:55:28;17.60;99.90
56725;DHT22;42608;52.776;6.968;2023-07-31T09:57:54;17.60;99.90
56725;DHT22;42608;52.776;6.968;2023-07-31T10:00:21;17.70;99.90
56725;DHT22;42608;52.776;6.968;2023-07-31T10:02:50;17.70;99.90
56725;DHT22;42608;52.776;6.968;2023-07-31T10:05:16;17.70;99.90
56725;DHT22;42608;52.776;6.968;2023-07-31T10:07:49;17.70;99.90
56725;DHT22;42608;52.776;6.968;2023-07-31T10:10:16;17.80;99.90
56725;DHT22;42608;52.776;6.968;2023-07-31T10:12:45;17.70;99.90
56725;DHT22;42608;52.776;6.968;2023-07-31T10:15:10;17.80;99.90
56725;DHT22;42608;52.776;6.968;2023-07-31T10:17:36;17.80;99.90
56725;DHT22;42608;52.776;6.968;2023-07-31T10:20:02;17.80;99.90
56725;DHT22;42608;52.776;6.968;2023-07-31T10:22:30;17.80;99.90
56725;DHT22;42608;52.776;6.968;2023-07-31T10:24:57;17.80;99.90
56725;DHT22;42608;52.776;6.968;2023-07-31T10:27:23;17.90;99.90
56725;DHT22;42608;52.776;6.968;2023-07-31T10:29:48;17.90;99.90
56725;DHT22;42608;52.776;6.968;2023-07-31T10:32:15;17.90;99.90
56725;DHT22;42608;52.776;6.968;2023-07-31T10:34:42;17.90;99.90
56725;DHT22;42608;52.776;6.968;2023-07-31T10:37:21;17.90;99.90
56725;DHT22;42608;52.776;6.968;2023-07-31T10:40:32;17.90;99.90
56725;DHT22;42608;52.776;6.968;2023-07-31T10:42:49;18.00;99.90
56725;DHT22;42608;52.776;6.968;2023-07-31T10:48:02;18.00;99.90
56725;DHT22;42608;52.776;6.968;2023-07-31T10:50:28;18.10;99.90
56725;DHT22;42608;52.776;6.968;2023-07-31T10:52:55;18.10;99.90
56725;DHT22;42608;52.776;6.968;2023-07-31T10:55:26;18.10;99.90
56725;DHT22;42608;52.776;6.968;2023-07-31T10:57:52;18.10;99.90
56725;DHT22;42608;52.776;6.968;2023-07-31T11:02:55;18.20;99.90
56725;DHT22;42608;52.776;6.968;2023-07-31T11:05:21;18.20;99.90
56725;DHT22;42608;52.776;6.968;2023-07-31T11:07:50;18.20;99.90
56725;DHT22;42608;52.776;6.968;2023-07-31T11:10:16;18.30;99.90
56725;DHT22;42608;52.776;6.968;2023-07-31T11:12:42;18.40;99.90
56725;DHT22;42608;52.776;6.968;2023-07-31T11:15:08;18.40;99.90
56725;DHT22;42608;52.776;6.968;2023-07-31T11:17:38;18.40;99.90
56725;DHT22;42608;52.776;6.968;2023-07-31T11:20:03;18.50;99.90
56725;DHT22;42608;52.776;6.968;2023-07-31T11:22:29;18.60;99.90
56725;DHT22;42608;52.776;6.968;2023-07-31T11:24:55;18.60;99.90
56725;DHT22;42608;52.776;6.968;2023-07-31T11:27:21;18.60;99.90
56725;DHT22;42608;52.776;6.968;2023-07-31T11:29:47;18.70;99.90
56725;DHT22;42608;52.776;6.968;2023-07-31T11:32:16;18.70;99.90
56725;DHT22;42608;52.776;6.968;2023-07-31T11:34:52;18.70;99.90
56725;DHT22;42608;52.776;6.968;2023-07-31T11:37:22;18.70;99.90
56725;DHT22;42608;52.776;6.968;2023-07-31T11:40:21;18.70;99.90
56725;DHT22;42608;52.776;6.968;2023-07-31T11:42:40;18.70;99.90
56725;DHT22;42608;52.776;6.968;2023-07-31T11:45:09;18.80;99.90
56725;DHT22;42608;52.776;6.968;2023-07-31T11:47:36;18.80;99.90
56725;DHT22;42608;52.776;6.968;2023-07-31T11:50:02;18.80;99.90
56725;DHT22;42608;52.776;6.968;2023-07-31T11:52:29;18.80;99.90
56725;DHT22;42608;52.776;6.968;2023-07-31T11:54:55;18.90;99.90
56725;DHT22;42608;52.776;6.968;2023-07-31T11:57:21;18.90;99.90
56725;DHT22;42608;52.776;6.968;2023-07-31T11:59:48;18.90;99.90
56725;DHT22;42608;52.776;6.968;2023-07-31T12:02:13;18.90;99.90
56725;DHT22;42608;52.776;6.968;2023-07-31T12:04:42;18.90;99.90
56725;DHT22;42608;52.776;6.968;2023-07-31T12:07:08;18.90;99.90
56725;DHT22;42608;52.776;6.968;2023-07-31T12:09:33;18.90;99.90
56725;DHT22;42608;52.776;6.968;2023-07-31T12:11:59;18.90;99.90
56725;DHT22;42608;52.776;6.968;2023-07-31T12:14:26;18.90;99.90
56725;DHT22;42608;52.776;6.968;2023-07-31T12:16:55;18.90;99.90
56725;DHT22;42608;52.776;6.968;2023-07-31T12:19:21;18.80;99.90
56725;DHT22;42608;52.776;6.968;2023-07-31T12:21:47;18.70;99.90
56725;DHT22;42608;52.776;6.968;2023-07-31T12:24:12;18.70;99.90
56725;DHT22;42608;52.776;6.968;2023-07-31T12:26:38;18.70;99.90
56725;DHT22;42608;52.776;6.968;2023-07-31T12:29:04;18.70;99.90
56725;DHT22;42608;52.776;6.968;2023-07-31T12:31:33;18.70;99.90
56725;DHT22;42608;52.776;6.968;2023-07-31T12:33:59;18.70;99.90
56725;DHT22;42608;52.776;6.968;2023-07-31T12:36:24;18.70;99.90
56725;DHT22;42608;52.776;6.968;2023-07-31T12:38:50;18.60;99.90
56725;DHT22;42608;52.776;6.968;2023-07-31T12:41:16;18.70;99.90
56725;DHT22;42608;52.776;6.968;2023-07-31T12:43:42;18.70;99.90
56725;DHT22;42608;52.776;6.968;2023-07-31T12:46:08;18.70;99.90
56725;DHT22;42608;52.776;6.968;2023-07-31T12:48:34;18.70;99.90
56725;DHT22;42608;52.776;6.968;2023-07-31T12:51:00;18.70;99.90
56725;DHT22;42608;52.776;6.968;2023-07-31T12:53:25;18.60;99.90
56725;DHT22;42608;52.776;6.968;2023-07-31T12:56:00;18.60;99.90
56725;DHT22;42608;52.776;6.968;2023-07-31T12:58:28;18.60;99.90
56725;DHT22;42608;52.776;6.968;2023-07-31T13:00:54;18.60;99.90
56725;DHT22;42608;52.776;6.968;2023-07-31T13:03:19;18.60;99.90
56725;DHT22;42608;52.776;6.968;2023-07-31T13:05:45;18.60;99.90
56725;DHT22;42608;52.776;6.968;2023-07-31T13:08:10;18.60;99.90
56725;DHT22;42608;52.776;6.968;2023-07-31T13:10:37;18.60;99.90
56725;DHT22;42608;52.776;6.968;2023-07-31T13:13:02;18.60;99.90
56725;DHT22;42608;52.776;6.968;2023-07-31T13:15:28;18.70;99.90
56725;DHT22;42608;52.776;6.968;2023-07-31T13:17:53;18.70;99.90
56725;DHT22;42608;52.776;6.968;2023-07-31T13:20:34;18.70;99.90
56725;DHT22;42608;52.776;6.968;2023-07-31T13:23:00;18.80;99.90
56725;DHT22;42608;52.776;6.968;2023-07-31T13:25:28;18.80;99.90
56725;DHT22;42608;52.776;6.968;2023-07-31T13:27:54;18.90;99.90
56725;DHT22;42608;52.776;6.968;2023-07-31T13:30:26;18.90;99.90
56725;DHT22;42608;52.776;6.968;2023-07-31T13:32:51;18.80;99.90
56725;DHT22;42608;52.776;6.968;2023-07-31T13:35:17;18.90;99.90
56725;DHT22;42608;52.776;6.968;2023-07-31T13:37:42;18.90;99.90
56725;DHT22;42608;52.776;6.968;2023-07-31T13:40:08;18.90;99.90
56725;DHT22;42608;52.776;6.968;2023-07-31T13:42:34;19.00;99.90
56725;DHT22;42608;52.776;6.968;2023-07-31T13:44:59;19.00;99.90
56725;DHT22;42608;52.776;6.968;2023-07-31T13:47:25;19.00;99.90
56725;DHT22;42608;52.776;6.968;2023-07-31T13:49:51;19.00;99.90
56725;DHT22;42608;52.776;6.968;2023-07-31T13:52:16;19.00;99.90
56725;DHT22;42608;52.776;6.968;2023-07-31T13:54:42;19.00;99.90
56725;DHT22;42608;52.776;6.968;2023-07-31T13:57:08;19.00;99.90
56725;DHT22;42608;52.776;6.968;2023-07-31T13:59:34;19.00;99.90
56725;DHT22;42608;52.776;6.968;2023-07-31T14:02:02;18.90;99.90
56725;DHT22;42608;52.776;6.968;2023-07-31T14:04:28;18.90;99.90
56725;DHT22;42608;52.776;6.968;2023-07-31T14:06:54;18.90;99.90
56725;DHT22;42608;52.776;6.968;2023-07-31T14:09:20;18.80;99.90
56725;DHT22;42608;52.776;6.968;2023-07-31T14:11:46;18.80;99.90
56725;DHT22;42608;52.776;6.968;2023-07-31T14:14:15;18.80;99.90
56725;DHT22;42608;52.776;6.968;2023-07-31T14:16:43;18.80;99.90
56725;DHT22;42608;52.776;6.968;2023-07-31T14:19:08;18.80;99.90
56725;DHT22;42608;52.776;6.968;2023-07-31T14:21:34;18.80;99.90
56725;DHT22;42608;52.776;6.968;2023-07-31T14:24:00;18.90;99.90
56725;DHT22;42608;52.776;6.968;2023-07-31T14:26:26;18.90;99.90
56725;DHT22;42608;52.776;6.968;2023-07-31T14:28:51;18.90;99.90
56725;DHT22;42608;52.776;6.968;2023-07-31T14:31:17;18.90;99.90
56725;DHT22;42608;52.776;6.968;2023-07-31T14:33:42;19.00;99.90
56725;DHT22;42608;52.776;6.968;2023-07-31T14:36:08;19.00;99.90
56725;DHT22;42608;52.776;6.968;2023-07-31T14:38:34;19.00;99.90
56725;DHT22;42608;52.776;6.968;2023-07-31T14:40:59;19.00;99.90
56725;DHT22;42608;52.776;6.968;2023-07-31T14:43:25;19.00;99.90
56725;DHT22;42608;52.776;6.968;2023-07-31T14:45:50;19.00;99.90
56725;DHT22;42608;52.776;6.968;2023-07-31T14:48:17;19.10;99.90
56725;DHT22;42608;52.776;6.968;2023-07-31T14:50:42;19.10;99.90
56725;DHT22;42608;52.776;6.968;2023-07-31T14:53:08;19.10;99.90
56725;DHT22;42608;52.776;6.968;2023-07-31T14:55:33;19.20;99.90
56725;DHT22;42608;52.776;6.968;2023-07-31T14:57:59;19.20;99.90
56725;DHT22;42608;52.776;6.968;2023-07-31T15:00:24;19.20;99.90
56725;DHT22;42608;52.776;6.968;2023-07-31T15:02:51;19.20;99.90
56725;DHT22;42608;52.776;6.968;2023-07-31T15:05:17;19.30;99.90
56725;DHT22;42608;52.776;6.968;2023-07-31T15:07:42;19.30;99.90
56725;DHT22;42608;52.776;6.968;2023-07-31T15:10:08;19.40;99.90
56725;DHT22;42608;52.776;6.968;2023-07-31T15:12:34;19.40;99.90
56725;DHT22;42608;52.776;6.968;2023-07-31T15:14:59;19.40;99.90
56725;DHT22;42608;52.776;6.968;2023-07-31T15:17:25;19.40;99.90
56725;DHT22;42608;52.776;6.968;2023-07-31T15:19:50;19.40;99.90
56725;DHT22;42608;52.776;6.968;2023-07-31T15:22:16;19.40;99.90
56725;DHT22;42608;52.776;6.968;2023-07-31T15:24:42;19.40;99.90
56725;DHT22;42608;52.776;6.968;2023-07-31T15:27:07;19.30;99.90
56725;DHT22;42608;52.776;6.968;2023-07-31T15:29:33;19.30;99.90
56725;DHT22;42608;52.776;6.968;2023-07-31T15:32:03;19.30;99.90
56725;DHT22;42608;52.776;6.968;2023-07-31T15:34:28;19.30;99.90
56725;DHT22;42608;52.776;6.968;2023-07-31T15:36:58;19.20;99.90